sensor_id;sensor_type;location;lat;lon;timestamp;P1;durP1;ratioP1;P2;durP2;ratioP2
58647;SDS011;45992;45.920;20.074;2022-07-11T00:00:16;3.95;;;1.15;;
58647;SDS011;45992;45.920;20.074;2022-07-11T00:02:42;5.18;;;1.30;;
58647;SDS011;45992;45.920;20.074;2022-07-11T00:05:08;3.95;;;1.20;;
58647;SDS011;45992;45.920;20.074;2022-07-11T00:07:35;3.83;;;1.17;;
58647;SDS011;45992;45.920;20.074;2022-07-11T00:10:04;7.93;;;1.65;;
58647;SDS011;45992;45.920;20.074;2022-07-11T00:12:30;3.65;;;1.10;;
58647;SDS011;45992;45.920;20.074;2022-07-11T00:14:57;5.50;;;1.10;;
58647;SDS011;45992;45.920;20.074;2022-07-11T00:17:23;4.47;;;1.40;;
58647;SDS011;45992;45.920;20.074;2022-07-11T00:19:49;4.32;;;1.17;;
58647;SDS011;45992;45.920;20.074;2022-07-11T00:22:15;5.35;;;1.30;;
58647;SDS011;45992;45.920;20.074;2022-07-11T00:24:41;4.70;;;1.02;;
58647;SDS011;45992;45.920;20.074;2022-07-11T00:27:07;5.00;;;1.13;;
58647;SDS011;45992;45.920;20.074;2022-07-11T00:29:33;3.75;;;1.30;;
58647;SDS011;45992;45.920;20.074;2022-07-11T00:32:00;4.90;;;1.33;;
58647;SDS011;45992;45.920;20.074;2022-07-11T00:34:26;4.85;;;1.15;;
58647;SDS011;45992;45.920;20.074;2022-07-11T00:36:53;4.10;;;1.15;;
58647;SDS011;45992;45.920;20.074;2022-07-11T00:39:19;5.88;;;1.10;;
58647;SDS011;45992;45.920;20.074;2022-07-11T00:41:45;3.38;;;1.05;;
58647;SDS011;45992;45.920;20.074;2022-07-11T00:44:11;3.33;;;1.00;;
58647;SDS011;45992;45.920;20.074;2022-07-11T00:46:38;6.85;;;1.58;;
58647;SDS011;45992;45.920;20.074;2022-07-11T00:49:04;4.13;;;1.08;;
58647;SDS011;45992;45.920;20.074;2022-07-11T00:51:30;5.22;;;1.33;;
58647;SDS011;45992;45.920;20.074;2022-07-11T00:53:57;4.57;;;1.25;;
58647;SDS011;45992;45.920;20.074;2022-07-11T00:58:50;4.63;;;1.20;;
58647;SDS011;45992;45.920;20.074;2022-07-11T01:01:16;4.95;;;1.48;;
58647;SDS011;45992;45.920;20.074;2022-07-11T01:03:42;4.93;;;1.40;;
58647;SDS011;45992;45.920;20.074;2022-07-11T01:06:08;6.22;;;1.50;;
58647;SDS011;45992;45.920;20.074;2022-07-11T01:08:35;5.50;;;1.40;;
58647;SDS011;45992;45.920;20.074;2022-07-11T01:11:01;4.65;;;1.63;;
58647;SDS011;45992;45.920;20.074;2022-07-11T01:13:27;7.70;;;1.95;;
58647;SDS011;45992;45.920;20.074;2022-07-11T01:16:12;5.37;;;1.50;;
58647;SDS011;45992;45.920;20.074;2022-07-11T01:18:42;3.92;;;1.30;;
58647;SDS011;45992;45.920;20.074;2022-07-11T01:23:54;4.50;;;1.45;;
58647;SDS011;45992;45.920;20.074;2022-07-11T01:26:21;5.07;;;1.40;;
58647;SDS011;45992;45.920;20.074;2022-07-11T01:28:47;4.10;;;1.20;;
58647;SDS011;45992;45.920;20.074;2022-07-11T01:31:14;4.72;;;1.48;;
58647;SDS011;45992;45.920;20.074;2022-07-11T01:33:40;4.75;;;1.40;;
58647;SDS011;45992;45.920;20.074;2022-07-11T01:36:06;4.07;;;1.20;;
58647;SDS011;45992;45.920;20.074;2022-07-11T01:38:32;5.18;;;1.40;;
58647;SDS011;45992;45.920;20.074;2022-07-11T01:40:58;6.93;;;1.52;;
58647;SDS011;45992;45.920;20.074;2022-07-11T01:43:24;5.30;;;1.50;;
58647;SDS011;45992;45.920;20.074;2022-07-11T01:45:51;4.70;;;1.40;;
58647;SDS011;45992;45.920;20.074;2022-07-11T01:48:17;5.03;;;1.50;;
58647;SDS011;45992;45.920;20.074;2022-07-11T01:50:43;4.28;;;1.30;;
58647;SDS011;45992;45.920;20.074;2022-07-11T01:53:09;4.78;;;1.33;;
58647;SDS011;45992;45.920;20.074;2022-07-11T01:55:35;5.72;;;1.65;;
58647;SDS011;45992;45.920;20.074;2022-07-11T01:58:01;4.05;;;1.25;;
58647;SDS011;45992;45.920;20.074;2022-07-11T02:00:27;4.80;;;1.30;;
58647;SDS011;45992;45.920;20.074;2022-07-11T02:02:53;4.85;;;1.30;;
58647;SDS011;45992;45.920;20.074;2022-07-11T02:05:19;4.83;;;1.40;;
58647;SDS011;45992;45.920;20.074;2022-07-11T02:07:45;4.90;;;1.50;;
58647;SDS011;45992;45.920;20.074;2022-07-11T02:10:30;4.90;;;1.40;;
58647;SDS011;45992;45.920;20.074;2022-07-11T02:12:56;7.20;;;1.60;;
58647;SDS011;45992;45.920;20.074;2022-07-11T02:15:23;5.53;;;1.50;;
58647;SDS011;45992;45.920;20.074;2022-07-11T02:17:49;4.53;;;1.60;;
58647;SDS011;45992;45.920;20.074;2022-07-11T02:20:16;4.00;;;1.30;;
58647;SDS011;45992;45.920;20.074;2022-07-11T02:22:42;4.55;;;1.60;;
58647;SDS011;45992;45.920;20.074;2022-07-11T02:25:09;5.32;;;1.55;;
58647;SDS011;45992;45.920;20.074;2022-07-11T02:27:35;5.03;;;1.30;;
58647;SDS011;45992;45.920;20.074;2022-07-11T02:30:01;9.50;;;1.47;;
58647;SDS011;45992;45.920;20.074;2022-07-11T02:32:27;4.70;;;1.50;;
58647;SDS011;45992;45.920;20.074;2022-07-11T02:34:53;5.13;;;1.67;;
58647;SDS011;45992;45.920;20.074;2022-07-11T02:37:19;4.50;;;1.43;;
58647;SDS011;45992;45.920;20.074;2022-07-11T02:39:45;5.55;;;1.60;;
58647;SDS011;45992;45.920;20.074;2022-07-11T02:42:12;4.88;;;1.65;;
58647;SDS011;45992;45.920;20.074;2022-07-11T02:44:38;7.60;;;1.73;;
58647;SDS011;45992;45.920;20.074;2022-07-11T02:47:06;6.68;;;1.70;;
58647;SDS011;45992;45.920;20.074;2022-07-11T02:49:32;5.35;;;1.50;;
58647;SDS011;45992;45.920;20.074;2022-07-11T02:51:58;7.63;;;1.77;;
58647;SDS011;45992;45.920;20.074;2022-07-11T02:54:24;5.38;;;1.67;;
58647;SDS011;45992;45.920;20.074;2022-07-11T02:56:50;9.48;;;2.08;;
58647;SDS011;45992;45.920;20.074;2022-07-11T02:59:16;5.65;;;1.67;;
58647;SDS011;45992;45.920;20.074;2022-07-11T03:01:42;5.80;;;1.87;;
58647;SDS011;45992;45.920;20.074;2022-07-11T03:04:09;5.15;;;1.60;;
58647;SDS011;45992;45.920;20.074;2022-07-11T03:06:36;4.85;;;1.70;;
58647;SDS011;45992;45.920;20.074;2022-07-11T03:09:05;5.28;;;1.73;;
58647;SDS011;45992;45.920;20.074;2022-07-11T03:11:31;5.53;;;2.00;;
58647;SDS011;45992;45.920;20.074;2022-07-11T03:13:58;5.43;;;2.07;;
58647;SDS011;45992;45.920;20.074;2022-07-11T03:16:25;7.07;;;2.15;;
58647;SDS011;45992;45.920;20.074;2022-07-11T03:18:51;5.53;;;1.90;;
58647;SDS011;45992;45.920;20.074;2022-07-11T03:21:17;5.55;;;1.77;;
58647;SDS011;45992;45.920;20.074;2022-07-11T03:23:43;10.93;;;1.90;;
58647;SDS011;45992;45.920;20.074;2022-07-11T03:26:09;6.20;;;2.47;;
58647;SDS011;45992;45.920;20.074;2022-07-11T03:28:36;6.63;;;2.15;;
58647;SDS011;45992;45.920;20.074;2022-07-11T03:31:02;6.82;;;1.98;;
58647;SDS011;45992;45.920;20.074;2022-07-11T03:33:28;5.80;;;1.90;;
58647;SDS011;45992;45.920;20.074;2022-07-11T03:35:54;12.82;;;2.45;;
58647;SDS011;45992;45.920;20.074;2022-07-11T03:38:20;6.07;;;2.17;;
58647;SDS011;45992;45.920;20.074;2022-07-11T03:40:47;6.05;;;2.53;;
58647;SDS011;45992;45.920;20.074;2022-07-11T03:43:13;7.88;;;2.25;;
58647;SDS011;45992;45.920;20.074;2022-07-11T03:45:40;5.65;;;1.85;;
58647;SDS011;45992;45.920;20.074;2022-07-11T03:48:06;6.95;;;2.40;;
58647;SDS011;45992;45.920;20.074;2022-07-11T03:50:33;6.32;;;3.50;;
58647;SDS011;45992;45.920;20.074;2022-07-11T03:52:59;4.72;;;2.10;;
58647;SDS011;45992;45.920;20.074;2022-07-11T03:55:26;7.60;;;5.20;;
58647;SDS011;45992;45.920;20.074;2022-07-11T03:57:52;6.90;;;5.18;;
58647;SDS011;45992;45.920;20.074;2022-07-11T04:00:18;7.95;;;5.35;;
58647;SDS011;45992;45.920;20.074;2022-07-11T04:02:45;6.97;;;5.97;;
58647;SDS011;45992;45.920;20.074;2022-07-11T04:05:12;8.43;;;6.13;;
58647;SDS011;45992;45.920;20.074;2022-07-11T04:07:38;7.47;;;5.90;;
58647;SDS011;45992;45.920;20.074;2022-07-11T04:10:04;6.65;;;5.97;;
58647;SDS011;45992;45.920;20.074;2022-07-11T04:12:30;7.40;;;6.40;;
58647;SDS011;45992;45.920;20.074;2022-07-11T04:14:56;7.10;;;5.60;;
58647;SDS011;45992;45.920;20.074;2022-07-11T04:17:22;7.30;;;6.22;;
58647;SDS011;45992;45.920;20.074;2022-07-11T04:19:48;6.63;;;6.00;;
58647;SDS011;45992;45.920;20.074;2022-07-11T04:22:15;6.63;;;5.93;;
58647;SDS011;45992;45.920;20.074;2022-07-11T04:24:42;6.95;;;6.25;;
58647;SDS011;45992;45.920;20.074;2022-07-11T04:27:08;7.78;;;7.00;;
58647;SDS011;45992;45.920;20.074;2022-07-11T04:29:34;7.03;;;6.43;;
58647;SDS011;45992;45.920;20.074;2022-07-11T04:32:00;8.55;;;6.47;;
58647;SDS011;45992;45.920;20.074;2022-07-11T04:34:26;6.90;;;6.30;;
58647;SDS011;45992;45.920;20.074;2022-07-11T04:39:18;8.55;;;6.55;;
58647;SDS011;45992;45.920;20.074;2022-07-11T04:41:44;8.13;;;7.35;;
58647;SDS011;45992;45.920;20.074;2022-07-11T04:44:10;7.10;;;6.22;;
58647;SDS011;45992;45.920;20.074;2022-07-11T04:46:36;8.93;;;6.28;;
58647;SDS011;45992;45.920;20.074;2022-07-11T04:49:02;7.95;;;6.38;;
58647;SDS011;45992;45.920;20.074;2022-07-11T04:53:54;6.97;;;6.38;;
58647;SDS011;45992;45.920;20.074;2022-07-11T04:58:46;7.07;;;6.38;;
58647;SDS011;45992;45.920;20.074;2022-07-11T05:03:38;7.18;;;5.88;;
58647;SDS011;45992;45.920;20.074;2022-07-11T05:06:04;9.20;;;5.50;;
58647;SDS011;45992;45.920;20.074;2022-07-11T05:08:31;6.78;;;6.00;;
58647;SDS011;45992;45.920;20.074;2022-07-11T05:11:01;6.50;;;5.60;;
58647;SDS011;45992;45.920;20.074;2022-07-11T05:13:27;6.30;;;5.28;;
58647;SDS011;45992;45.920;20.074;2022-07-11T05:18:19;6.60;;;5.57;;
58647;SDS011;45992;45.920;20.074;2022-07-11T05:20:45;7.03;;;5.28;;
58647;SDS011;45992;45.920;20.074;2022-07-11T05:23:13;5.75;;;5.07;;
58647;SDS011;45992;45.920;20.074;2022-07-11T05:25:39;6.20;;;5.10;;
58647;SDS011;45992;45.920;20.074;2022-07-11T05:28:05;6.65;;;5.35;;
58647;SDS011;45992;45.920;20.074;2022-07-11T05:30:31;6.47;;;4.95;;
58647;SDS011;45992;45.920;20.074;2022-07-11T05:32:57;7.25;;;4.90;;
58647;SDS011;45992;45.920;20.074;2022-07-11T05:35:23;8.18;;;4.90;;
58647;SDS011;45992;45.920;20.074;2022-07-11T05:37:50;6.57;;;4.85;;
58647;SDS011;45992;45.920;20.074;2022-07-11T05:40:17;5.95;;;4.80;;
58647;SDS011;45992;45.920;20.074;2022-07-11T05:42:43;7.25;;;4.82;;
58647;SDS011;45992;45.920;20.074;2022-07-11T05:45:09;5.75;;;4.50;;
58647;SDS011;45992;45.920;20.074;2022-07-11T05:47:36;7.47;;;4.78;;
58647;SDS011;45992;45.920;20.074;2022-07-11T05:50:02;8.32;;;5.00;;
58647;SDS011;45992;45.920;20.074;2022-07-11T05:52:28;7.85;;;4.57;;
58647;SDS011;45992;45.920;20.074;2022-07-11T05:54:54;6.13;;;4.38;;
58647;SDS011;45992;45.920;20.074;2022-07-11T05:57:20;5.60;;;4.45;;
58647;SDS011;45992;45.920;20.074;2022-07-11T05:59:46;5.90;;;4.30;;
58647;SDS011;45992;45.920;20.074;2022-07-11T06:02:12;6.10;;;4.35;;
58647;SDS011;45992;45.920;20.074;2022-07-11T06:04:38;7.38;;;4.07;;
58647;SDS011;45992;45.920;20.074;2022-07-11T06:07:05;5.88;;;3.90;;
58647;SDS011;45992;45.920;20.074;2022-07-11T06:09:31;6.93;;;4.10;;
58647;SDS011;45992;45.920;20.074;2022-07-11T06:11:57;6.95;;;3.92;;
58647;SDS011;45992;45.920;20.074;2022-07-11T06:14:23;6.13;;;3.58;;
58647;SDS011;45992;45.920;20.074;2022-07-11T06:16:49;6.55;;;3.72;;
58647;SDS011;45992;45.920;20.074;2022-07-11T06:19:15;5.70;;;3.80;;
58647;SDS011;45992;45.920;20.074;2022-07-11T06:21:42;6.95;;;3.85;;
58647;SDS011;45992;45.920;20.074;2022-07-11T06:24:08;6.53;;;4.10;;
58647;SDS011;45992;45.920;20.074;2022-07-11T06:26:34;5.97;;;3.70;;
58647;SDS011;45992;45.920;20.074;2022-07-11T06:29:00;6.85;;;4.05;;
58647;SDS011;45992;45.920;20.074;2022-07-11T06:31:26;5.70;;;3.80;;
58647;SDS011;45992;45.920;20.074;2022-07-11T06:33:53;7.50;;;3.65;;
58647;SDS011;45992;45.920;20.074;2022-07-11T06:36:25;5.70;;;2.85;;
58647;SDS011;45992;45.920;20.074;2022-07-11T06:38:51;5.75;;;2.40;;
58647;SDS011;45992;45.920;20.074;2022-07-11T06:41:18;5.18;;;2.20;;
58647;SDS011;45992;45.920;20.074;2022-07-11T06:43:44;5.38;;;2.92;;
58647;SDS011;45992;45.920;20.074;2022-07-11T06:46:13;4.82;;;1.50;;
58647;SDS011;45992;45.920;20.074;2022-07-11T06:48:39;5.68;;;2.17;;
58647;SDS011;45992;45.920;20.074;2022-07-11T06:51:05;7.63;;;2.65;;
58647;SDS011;45992;45.920;20.074;2022-07-11T06:53:31;7.80;;;2.63;;
58647;SDS011;45992;45.920;20.074;2022-07-11T06:55:57;6.88;;;3.10;;
58647;SDS011;45992;45.920;20.074;2022-07-11T06:58:23;7.60;;;3.47;;
58647;SDS011;45992;45.920;20.074;2022-07-11T07:01:01;7.05;;;2.92;;
58647;SDS011;45992;45.920;20.074;2022-07-11T07:03:28;6.18;;;3.22;;
58647;SDS011;45992;45.920;20.074;2022-07-11T07:05:55;6.00;;;2.60;;
58647;SDS011;45992;45.920;20.074;2022-07-11T07:08:24;5.30;;;2.70;;
58647;SDS011;45992;45.920;20.074;2022-07-11T07:10:50;5.20;;;2.58;;
58647;SDS011;45992;45.920;20.074;2022-07-11T07:13:17;5.75;;;2.80;;
58647;SDS011;45992;45.920;20.074;2022-07-11T07:15:43;6.30;;;2.65;;
58647;SDS011;45992;45.920;20.074;2022-07-11T07:18:10;6.03;;;2.78;;
58647;SDS011;45992;45.920;20.074;2022-07-11T07:20:37;5.45;;;2.55;;
58647;SDS011;45992;45.920;20.074;2022-07-11T07:23:03;7.78;;;2.47;;
58647;SDS011;45992;45.920;20.074;2022-07-11T07:25:29;5.55;;;2.50;;
58647;SDS011;45992;45.920;20.074;2022-07-11T07:27:55;5.57;;;2.67;;
58647;SDS011;45992;45.920;20.074;2022-07-11T07:30:21;7.32;;;2.78;;
58647;SDS011;45992;45.920;20.074;2022-07-11T07:32:47;5.75;;;2.25;;
58647;SDS011;45992;45.920;20.074;2022-07-11T07:35:13;4.90;;;2.05;;
58647;SDS011;45992;45.920;20.074;2022-07-11T07:37:39;5.82;;;2.45;;
58647;SDS011;45992;45.920;20.074;2022-07-11T07:40:05;6.40;;;2.20;;
58647;SDS011;45992;45.920;20.074;2022-07-11T07:42:31;5.85;;;2.60;;
58647;SDS011;45992;45.920;20.074;2022-07-11T07:44:57;6.65;;;2.38;;
58647;SDS011;45992;45.920;20.074;2022-07-11T07:47:23;5.28;;;2.38;;
58647;SDS011;45992;45.920;20.074;2022-07-11T07:49:49;6.15;;;1.90;;
58647;SDS011;45992;45.920;20.074;2022-07-11T07:52:15;5.32;;;2.28;;
58647;SDS011;45992;45.920;20.074;2022-07-11T07:54:42;5.55;;;2.30;;
58647;SDS011;45992;45.920;20.074;2022-07-11T07:57:08;6.95;;;2.47;;
58647;SDS011;45992;45.920;20.074;2022-07-11T07:59:34;6.30;;;2.20;;
58647;SDS011;45992;45.920;20.074;2022-07-11T08:02:00;6.80;;;2.50;;
58647;SDS011;45992;45.920;20.074;2022-07-11T08:04:26;5.45;;;2.50;;
58647;SDS011;45992;45.920;20.074;2022-07-11T08:06:54;6.68;;;2.30;;
58647;SDS011;45992;45.920;20.074;2022-07-11T08:09:21;9.00;;;2.50;;
58647;SDS011;45992;45.920;20.074;2022-07-11T08:11:48;6.78;;;2.17;;
58647;SDS011;45992;45.920;20.074;2022-07-11T08:14:14;6.53;;;2.72;;
58647;SDS011;45992;45.920;20.074;2022-07-11T08:16:40;4.75;;;1.38;;
58647;SDS011;45992;45.920;20.074;2022-07-11T08:19:06;7.70;;;1.63;;
58647;SDS011;45992;45.920;20.074;2022-07-11T08:21:33;8.20;;;1.40;;
58647;SDS011;45992;45.920;20.074;2022-07-11T08:23:59;13.50;;;2.55;;
58647;SDS011;45992;45.920;20.074;2022-07-11T08:26:25;5.22;;;2.50;;
58647;SDS011;45992;45.920;20.074;2022-07-11T08:28:51;6.55;;;1.65;;
58647;SDS011;45992;45.920;20.074;2022-07-11T08:31:17;5.38;;;2.15;;
58647;SDS011;45992;45.920;20.074;2022-07-11T08:33:43;8.40;;;1.58;;
58647;SDS011;45992;45.920;20.074;2022-07-11T08:36:10;4.55;;;1.40;;
58647;SDS011;45992;45.920;20.074;2022-07-11T08:38:37;6.57;;;2.63;;
58647;SDS011;45992;45.920;20.074;2022-07-11T08:41:04;6.55;;;2.40;;
58647;SDS011;45992;45.920;20.074;2022-07-11T08:43:30;4.95;;;1.50;;
58647;SDS011;45992;45.920;20.074;2022-07-11T08:45:58;3.92;;;1.17;;
58647;SDS011;45992;45.920;20.074;2022-07-11T08:48:24;4.32;;;1.50;;
58647;SDS011;45992;45.920;20.074;2022-07-11T08:50:50;6.05;;;1.80;;
58647;SDS011;45992;45.920;20.074;2022-07-11T08:53:16;6.78;;;2.55;;
58647;SDS011;45992;45.920;20.074;2022-07-11T08:55:42;5.43;;;2.10;;
58647;SDS011;45992;45.920;20.074;2022-07-11T08:58:09;7.03;;;2.20;;
58647;SDS011;45992;45.920;20.074;2022-07-11T09:00:35;8.77;;;2.28;;
58647;SDS011;45992;45.920;20.074;2022-07-11T09:03:02;6.45;;;2.50;;
58647;SDS011;45992;45.920;20.074;2022-07-11T09:05:30;8.48;;;2.22;;
58647;SDS011;45992;45.920;20.074;2022-07-11T09:07:56;4.85;;;1.50;;
58647;SDS011;45992;45.920;20.074;2022-07-11T09:10:23;6.43;;;2.00;;
58647;SDS011;45992;45.920;20.074;2022-07-11T09:12:59;4.97;;;2.08;;
58647;SDS011;45992;45.920;20.074;2022-07-11T09:18:01;7.72;;;2.10;;
58647;SDS011;45992;45.920;20.074;2022-07-11T09:20:27;4.22;;;1.73;;
58647;SDS011;45992;45.920;20.074;2022-07-11T09:23:20;6.90;;;2.15;;
58647;SDS011;45992;45.920;20.074;2022-07-11T09:26:04;5.20;;;1.92;;
58647;SDS011;45992;45.920;20.074;2022-07-11T09:28:30;6.00;;;1.40;;
58647;SDS011;45992;45.920;20.074;2022-07-11T09:30:57;4.35;;;1.25;;
58647;SDS011;45992;45.920;20.074;2022-07-11T09:33:23;4.97;;;2.08;;
58647;SDS011;45992;45.920;20.074;2022-07-11T09:35:49;5.88;;;2.30;;
58647;SDS011;45992;45.920;20.074;2022-07-11T09:38:15;4.40;;;1.90;;
58647;SDS011;45992;45.920;20.074;2022-07-11T09:40:42;5.38;;;1.90;;
58647;SDS011;45992;45.920;20.074;2022-07-11T09:43:08;5.65;;;1.60;;
58647;SDS011;45992;45.920;20.074;2022-07-11T09:45:35;4.60;;;1.63;;
58647;SDS011;45992;45.920;20.074;2022-07-11T09:48:07;5.72;;;1.55;;
58647;SDS011;45992;45.920;20.074;2022-07-11T09:50:33;5.93;;;1.45;;
58647;SDS011;45992;45.920;20.074;2022-07-11T09:55:26;4.22;;;1.40;;
58647;SDS011;45992;45.920;20.074;2022-07-11T09:57:52;5.07;;;1.42;;
58647;SDS011;45992;45.920;20.074;2022-07-11T10:00:18;4.78;;;1.38;;
58647;SDS011;45992;45.920;20.074;2022-07-11T10:02:44;5.15;;;1.50;;
58647;SDS011;45992;45.920;20.074;2022-07-11T10:05:11;6.75;;;1.95;;
58647;SDS011;45992;45.920;20.074;2022-07-11T10:07:37;4.47;;;1.17;;
58647;SDS011;45992;45.920;20.074;2022-07-11T10:10:04;5.43;;;1.50;;
58647;SDS011;45992;45.920;20.074;2022-07-11T10:12:31;5.70;;;1.70;;
58647;SDS011;45992;45.920;20.074;2022-07-11T10:15:08;4.78;;;1.48;;
58647;SDS011;45992;45.920;20.074;2022-07-11T10:22:29;4.57;;;1.30;;
58647;SDS011;45992;45.920;20.074;2022-07-11T10:29:49;5.53;;;1.50;;
58647;SDS011;45992;45.920;20.074;2022-07-11T10:32:16;4.82;;;1.67;;
58647;SDS011;45992;45.920;20.074;2022-07-11T10:37:08;6.03;;;1.75;;
58647;SDS011;45992;45.920;20.074;2022-07-11T10:39:35;5.70;;;1.40;;
58647;SDS011;45992;45.920;20.074;2022-07-11T10:42:04;6.28;;;1.83;;
58647;SDS011;45992;45.920;20.074;2022-07-11T10:47:35;6.05;;;1.50;;
58647;SDS011;45992;45.920;20.074;2022-07-11T10:52:50;7.82;;;1.67;;
58647;SDS011;45992;45.920;20.074;2022-07-11T10:55:43;5.60;;;1.83;;
58647;SDS011;45992;45.920;20.074;2022-07-11T10:58:20;4.97;;;1.77;;
58647;SDS011;45992;45.920;20.074;2022-07-11T11:01:09;7.30;;;1.88;;
58647;SDS011;45992;45.920;20.074;2022-07-11T11:03:35;7.03;;;1.85;;
58647;SDS011;45992;45.920;20.074;2022-07-11T11:06:01;6.28;;;1.70;;
58647;SDS011;45992;45.920;20.074;2022-07-11T11:10:57;4.13;;;1.40;;
58647;SDS011;45992;45.920;20.074;2022-07-11T11:13:24;5.53;;;1.75;;
58647;SDS011;45992;45.920;20.074;2022-07-11T11:15:51;4.70;;;1.40;;
58647;SDS011;45992;45.920;20.074;2022-07-11T11:23:42;5.38;;;1.90;;
58647;SDS011;45992;45.920;20.074;2022-07-11T11:26:10;6.47;;;1.77;;
58647;SDS011;45992;45.920;20.074;2022-07-11T11:28:37;4.80;;;1.90;;
58647;SDS011;45992;45.920;20.074;2022-07-11T11:31:04;5.22;;;1.55;;
58647;SDS011;45992;45.920;20.074;2022-07-11T11:33:31;4.53;;;1.40;;
58647;SDS011;45992;45.920;20.074;2022-07-11T11:38:26;5.88;;;1.92;;
58647;SDS011;45992;45.920;20.074;2022-07-11T11:40:52;5.45;;;1.50;;
58647;SDS011;45992;45.920;20.074;2022-07-11T11:43:20;5.18;;;1.33;;
58647;SDS011;45992;45.920;20.074;2022-07-11T11:45:49;4.20;;;1.30;;
58647;SDS011;45992;45.920;20.074;2022-07-11T11:51:06;4.32;;;1.30;;
58647;SDS011;45992;45.920;20.074;2022-07-11T11:53:42;4.65;;;1.42;;
58647;SDS011;45992;45.920;20.074;2022-07-11T11:56:15;4.93;;;1.52;;
58647;SDS011;45992;45.920;20.074;2022-07-11T11:58:42;6.25;;;1.48;;
58647;SDS011;45992;45.920;20.074;2022-07-11T12:01:09;4.55;;;1.42;;
58647;SDS011;45992;45.920;20.074;2022-07-11T12:06:16;4.63;;;1.70;;
58647;SDS011;45992;45.920;20.074;2022-07-11T12:08:42;5.53;;;1.98;;
58647;SDS011;45992;45.920;20.074;2022-07-11T12:11:12;4.50;;;1.50;;
58647;SDS011;45992;45.920;20.074;2022-07-11T12:13:41;5.65;;;1.25;;
58647;SDS011;45992;45.920;20.074;2022-07-11T12:16:14;5.35;;;1.50;;
58647;SDS011;45992;45.920;20.074;2022-07-11T12:19:03;5.93;;;1.52;;
58647;SDS011;45992;45.920;20.074;2022-07-11T12:21:31;7.05;;;1.52;;
58647;SDS011;45992;45.920;20.074;2022-07-11T12:24:02;5.47;;;1.17;;
58647;SDS011;45992;45.920;20.074;2022-07-11T12:26:33;5.60;;;1.23;;
58647;SDS011;45992;45.920;20.074;2022-07-11T12:29:03;7.72;;;1.50;;
58647;SDS011;45992;45.920;20.074;2022-07-11T12:34:21;4.50;;;1.40;;
58647;SDS011;45992;45.920;20.074;2022-07-11T12:36:48;4.70;;;1.45;;
58647;SDS011;45992;45.920;20.074;2022-07-11T12:39:26;6.03;;;1.80;;
58647;SDS011;45992;45.920;20.074;2022-07-11T12:41:53;6.72;;;1.60;;
58647;SDS011;45992;45.920;20.074;2022-07-11T12:47:07;5.60;;;1.50;;
58647;SDS011;45992;45.920;20.074;2022-07-11T12:49:33;5.95;;;1.70;;
58647;SDS011;45992;45.920;20.074;2022-07-11T12:54:29;4.95;;;1.60;;
58647;SDS011;45992;45.920;20.074;2022-07-11T12:56:59;4.32;;;1.40;;
58647;SDS011;45992;45.920;20.074;2022-07-11T12:59:29;6.75;;;1.60;;
58647;SDS011;45992;45.920;20.074;2022-07-11T13:10:07;6.38;;;1.52;;
58647;SDS011;45992;45.920;20.074;2022-07-11T13:12:34;5.63;;;1.63;;
58647;SDS011;45992;45.920;20.074;2022-07-11T13:15:00;4.05;;;1.33;;
58647;SDS011;45992;45.920;20.074;2022-07-11T13:17:40;6.75;;;1.50;;
58647;SDS011;45992;45.920;20.074;2022-07-11T13:20:08;6.63;;;1.48;;
58647;SDS011;45992;45.920;20.074;2022-07-11T13:22:34;5.95;;;1.70;;
58647;SDS011;45992;45.920;20.074;2022-07-11T13:25:01;4.65;;;1.50;;
58647;SDS011;45992;45.920;20.074;2022-07-11T13:29:53;6.13;;;1.80;;
58647;SDS011;45992;45.920;20.074;2022-07-11T13:32:19;4.35;;;1.30;;
58647;SDS011;45992;45.920;20.074;2022-07-11T13:34:45;5.10;;;1.75;;
58647;SDS011;45992;45.920;20.074;2022-07-11T13:37:13;4.72;;;1.35;;
58647;SDS011;45992;45.920;20.074;2022-07-11T13:39:39;5.05;;;1.33;;
58647;SDS011;45992;45.920;20.074;2022-07-11T13:44:31;12.48;;;2.22;;
58647;SDS011;45992;45.920;20.074;2022-07-11T13:49:23;4.65;;;1.27;;
58647;SDS011;45992;45.920;20.074;2022-07-11T13:51:50;5.38;;;1.38;;
58647;SDS011;45992;45.920;20.074;2022-07-11T13:54:17;10.90;;;2.83;;
58647;SDS011;45992;45.920;20.074;2022-07-11T13:56:43;4.40;;;1.25;;
58647;SDS011;45992;45.920;20.074;2022-07-11T14:01:35;6.35;;;1.50;;
58647;SDS011;45992;45.920;20.074;2022-07-11T14:04:02;5.43;;;1.58;;
58647;SDS011;45992;45.920;20.074;2022-07-11T14:08:54;5.55;;;1.35;;
58647;SDS011;45992;45.920;20.074;2022-07-11T14:11:20;7.68;;;1.55;;
58647;SDS011;45992;45.920;20.074;2022-07-11T14:13:46;3.88;;;1.15;;
58647;SDS011;45992;45.920;20.074;2022-07-11T14:16:12;10.75;;;1.45;;
58647;SDS011;45992;45.920;20.074;2022-07-11T14:18:38;4.15;;;1.05;;
58647;SDS011;45992;45.920;20.074;2022-07-11T14:21:06;4.80;;;1.30;;
58647;SDS011;45992;45.920;20.074;2022-07-11T14:23:32;9.73;;;1.63;;
58647;SDS011;45992;45.920;20.074;2022-07-11T14:25:59;9.80;;;1.77;;
58647;SDS011;45992;45.920;20.074;2022-07-11T14:28:25;4.15;;;1.20;;
58647;SDS011;45992;45.920;20.074;2022-07-11T14:30:52;7.03;;;1.55;;
58647;SDS011;45992;45.920;20.074;2022-07-11T14:33:18;4.68;;;1.60;;
58647;SDS011;45992;45.920;20.074;2022-07-11T14:35:45;5.72;;;1.45;;
58647;SDS011;45992;45.920;20.074;2022-07-11T14:38:11;5.55;;;1.58;;
58647;SDS011;45992;45.920;20.074;2022-07-11T14:40:37;4.63;;;1.42;;
58647;SDS011;45992;45.920;20.074;2022-07-11T14:43:03;6.13;;;1.48;;
58647;SDS011;45992;45.920;20.074;2022-07-11T14:45:29;7.57;;;1.23;;
58647;SDS011;45992;45.920;20.074;2022-07-11T14:47:55;6.00;;;1.40;;
58647;SDS011;45992;45.920;20.074;2022-07-11T14:50:21;7.72;;;1.70;;
58647;SDS011;45992;45.920;20.074;2022-07-11T14:52:47;5.13;;;1.40;;
58647;SDS011;45992;45.920;20.074;2022-07-11T14:55:13;6.45;;;2.03;;
58647;SDS011;45992;45.920;20.074;2022-07-11T14:57:39;4.55;;;1.23;;
58647;SDS011;45992;45.920;20.074;2022-07-11T15:00:05;5.45;;;1.50;;
58647;SDS011;45992;45.920;20.074;2022-07-11T15:02:32;4.75;;;1.40;;
58647;SDS011;45992;45.920;20.074;2022-07-11T15:05:16;7.47;;;1.58;;
58647;SDS011;45992;45.920;20.074;2022-07-11T15:07:42;6.10;;;1.38;;
58647;SDS011;45992;45.920;20.074;2022-07-11T15:10:27;4.70;;;1.55;;
58647;SDS011;45992;45.920;20.074;2022-07-11T15:13:12;4.45;;;1.50;;
58647;SDS011;45992;45.920;20.074;2022-07-11T15:15:38;7.38;;;1.52;;
58647;SDS011;45992;45.920;20.074;2022-07-11T15:18:04;9.93;;;1.75;;
58647;SDS011;45992;45.920;20.074;2022-07-11T15:20:30;6.93;;;1.52;;
58647;SDS011;45992;45.920;20.074;2022-07-11T15:22:59;6.45;;;1.65;;
58647;SDS011;45992;45.920;20.074;2022-07-11T15:25:26;4.97;;;1.55;;
58647;SDS011;45992;45.920;20.074;2022-07-11T15:27:52;7.10;;;1.83;;
58647;SDS011;45992;45.920;20.074;2022-07-11T15:32:44;6.68;;;1.70;;
58647;SDS011;45992;45.920;20.074;2022-07-11T15:37:36;5.78;;;1.40;;
58647;SDS011;45992;45.920;20.074;2022-07-11T15:42:28;6.43;;;1.70;;
58647;SDS011;45992;45.920;20.074;2022-07-11T15:44:54;6.30;;;1.60;;
58647;SDS011;45992;45.920;20.074;2022-07-11T15:47:20;6.55;;;1.48;;
58647;SDS011;45992;45.920;20.074;2022-07-11T15:49:46;5.35;;;1.35;;
58647;SDS011;45992;45.920;20.074;2022-07-11T15:52:12;5.25;;;1.55;;
58647;SDS011;45992;45.920;20.074;2022-07-11T15:54:38;6.85;;;1.58;;
58647;SDS011;45992;45.920;20.074;2022-07-11T15:57:04;5.72;;;1.35;;
58647;SDS011;45992;45.920;20.074;2022-07-11T15:59:30;4.50;;;1.25;;
58647;SDS011;45992;45.920;20.074;2022-07-11T16:01:56;6.38;;;1.45;;
58647;SDS011;45992;45.920;20.074;2022-07-11T16:04:22;5.30;;;1.65;;